Time;durP1;ratioP1;P1;durP2;ratioP2;P2;SDS_P1;SDS_P2;PMS_P1;PMS_P2;Temp;Humidity;BMP_temperature;BMP_pressure;BME280_temperature;BME280_humidity;BME280_pressure;Samples;Min_cycle;Max_cycle;Signal;HPM_P1;HPM_P2
2021/10/15 00:00:31;;;;;;;4.80;1.60;;;;;;;;;;2070536;28;20034;-73
2021/10/15 00:01:50;;;;;;;3.85;1.77;;;;;;;;;;2077507;28;20037;-73
2021/10/15 00:03:08;;;;;;;3.97;1.90;;;;;;;;;;2073756;28;20034;-73
2021/10/15 00:04:27;;;;;;;3.60;1.80;;;;;;;;;;2072839;28;20030;-72
2021/10/15 00:05:46;;;;;;;2.97;1.80;;;;;;;;;;2073447;28;20504;-72
2021/10/15 00:07:05;;;;;;;3.78;2.05;;;;;;;;;;2072570;28;20077;-76
2021/10/15 00:08:24;;;;;;;3.90;1.80;;;;;;;;;;2069881;28;20037;-73
2021/10/15 00:09:43;;;;;;;3.05;1.70;;;;;;;;;;2071778;28;20097;-72
2021/10/15 00:11:02;;;;;;;5.32;2.55;;;;;;;;;;2073338;28;20029;-72
2021/10/15 00:12:21;;;;;;;5.20;2.25;;;;;;;;;;2071148;28;20030;-73
2021/10/15 00:13:39;;;;;;;6.32;2.10;;;;;;;;;;2070804;28;20129;-73
2021/10/15 00:14:58;;;;;;;3.60;1.80;;;;;;;;;;2070808;28;20393;-73
2021/10/15 00:16:17;;;;;;;3.67;1.48;;;;;;;;;;2072487;28;20435;-72
2021/10/15 00:17:36;;;;;;;3.92;1.70;;;;;;;;;;2072021;28;20030;-72
2021/10/15 00:18:55;;;;;;;2.13;1.85;;;;;;;;;;2072658;28;20377;-73
2021/10/15 00:20:14;;;;;;;3.83;2.00;;;;;;;;;;2070915;28;20399;-74
2021/10/15 00:21:33;;;;;;;2.00;1.58;;;;;;;;;;2071864;28;20019;-73
2021/10/15 00:22:52;;;;;;;6.25;2.10;;;;;;;;;;2073203;28;20026;-74
2021/10/15 00:24:11;;;;;;;3.13;1.55;;;;;;;;;;2073390;28;20046;-72
2021/10/15 00:25:30;;;;;;;3.28;1.60;;;;;;;;;;2073132;28;20144;-70
2021/10/15 00:26:49;;;;;;;2.75;1.70;;;;;;;;;;2073018;28;20030;-72
2021/10/15 00:28:08;;;;;;;5.20;2.03;;;;;;;;;;2070878;28;20029;-73
2021/10/15 00:29:27;;;;;;;3.33;2.00;;;;;;;;;;2066838;28;20030;-72
2021/10/15 00:30:46;;;;;;;2.08;1.73;;;;;;;;;;2070623;28;20038;-74
2021/10/15 00:32:05;;;;;;;3.45;2.35;;;;;;;;;;2077948;28;20412;-72
2021/10/15 00:33:24;;;;;;;2.55;1.70;;;;;;;;;;2083283;28;20436;-72
2021/10/15 00:34:43;;;;;;;3.58;1.80;;;;;;;;;;2075040;28;20069;-72
2021/10/15 00:36:02;;;;;;;7.50;2.05;;;;;;;;;;2072000;28;20443;-73
2021/10/15 00:37:21;;;;;;;3.65;1.75;;;;;;;;;;2071885;28;20042;-73
2021/10/15 00:38:40;;;;;;;5.32;2.05;;;;;;;;;;2070068;28;20034;-73
2021/10/15 00:39:59;;;;;;;2.75;1.92;;;;;;;;;;2069825;28;20030;-74
2021/10/15 00:41:18;;;;;;;2.60;1.40;;;;;;;;;;2079322;28;20017;-72
2021/10/15 00:42:37;;;;;;;3.28;1.73;;;;;;;;;;2073935;28;20053;-73
2021/10/15 00:43:59;;;;;;;3.75;1.63;;;;;;;;;;2071325;28;20018;-72
2021/10/15 00:45:18;;;;;;;6.93;2.00;;;;;;;;;;2071792;28;20410;-72
2021/10/15 00:46:38;;;;;;;3.75;1.80;;;;;;;;;;2067843;28;20426;-73
2021/10/15 00:47:57;;;;;;;2.40;1.90;;;;;;;;;;2071505;28;20065;-72
2021/10/15 00:49:16;;;;;;;3.85;2.03;;;;;;;;;;2070651;28;20058;-72
2021/10/15 00:50:36;;;;;;;3.15;1.80;;;;;;;;;;2069548;28;20038;-73
2021/10/15 00:51:55;;;;;;;2.17;1.50;;;;;;;;;;2071629;28;20030;-73
2021/10/15 00:53:14;;;;;;;4.13;1.52;;;;;;;;;;2071444;28;20521;-73
2021/10/15 00:54:32;;;;;;;5.90;2.70;;;;;;;;;;2073006;28;20037;-73
2021/10/15 00:55:51;;;;;;;3.40;1.70;;;;;;;;;;2070768;28;20478;-72
2021/10/15 00:57:11;;;;;;;5.35;1.83;;;;;;;;;;2080878;28;20088;-75
2021/10/15 00:58:30;;;;;;;4.53;1.98;;;;;;;;;;2072257;28;20030;-73
2021/10/15 00:59:50;;;;;;;1.65;1.38;;;;;;;;;;2072919;28;20041;-72
2021/10/15 01:01:09;;;;;;;2.35;1.58;;;;;;;;;;2077617;28;20063;-74
2021/10/15 01:02:28;;;;;;;5.50;2.20;;;;;;;;;;2074462;28;20059;-72
2021/10/15 01:03:47;;;;;;;2.90;1.85;;;;;;;;;;2071983;28;20030;-72
2021/10/15 01:05:06;;;;;;;2.55;1.70;;;;;;;;;;2079313;28;20017;-72
2021/10/15 01:06:26;;;;;;;4.43;1.80;;;;;;;;;;2071348;28;20038;-73
2021/10/15 01:07:45;;;;;;;4.45;2.10;;;;;;;;;;2064101;28;20061;-72
2021/10/15 01:09:05;;;;;;;3.92;1.50;;;;;;;;;;2069487;28;20046;-72
2021/10/15 01:10:25;;;;;;;4.63;1.80;;;;;;;;;;2072124;28;20034;-73
2021/10/15 01:11:44;;;;;;;5.43;1.75;;;;;;;;;;2072756;28;20041;-73
2021/10/15 01:13:03;;;;;;;3.55;2.08;;;;;;;;;;2071242;28;20450;-72
2021/10/15 01:14:23;;;;;;;5.63;2.15;;;;;;;;;;2070653;28;20042;-73
2021/10/15 01:15:41;;;;;;;2.15;1.58;;;;;;;;;;2072020;28;20108;-72
2021/10/15 01:17:01;;;;;;;4.60;1.70;;;;;;;;;;2072587;28;20113;-72
2021/10/15 01:18:20;;;;;;;3.50;1.63;;;;;;;;;;2072090;28;20045;-72
2021/10/15 01:19:39;;;;;;;1.70;1.38;;;;;;;;;;2071768;28;20482;-72
2021/10/15 01:20:58;;;;;;;2.47;1.42;;;;;;;;;;2072176;28;20057;-72
2021/10/15 01:22:17;;;;;;;5.28;1.92;;;;;;;;;;2070639;28;20090;-73
2021/10/15 01:23:37;;;;;;;6.75;1.88;;;;;;;;;;2073063;28;20026;-74
2021/10/15 01:24:57;;;;;;;7.75;1.58;;;;;;;;;;2072494;28;20033;-74
2021/10/15 01:26:16;;;;;;;4.03;1.92;;;;;;;;;;2073442;28;20053;-73
2021/10/15 01:27:35;;;;;;;1.92;1.50;;;;;;;;;;2071037;28;20056;-73
2021/10/15 01:28:55;;;;;;;6.45;2.00;;;;;;;;;;2071004;28;20453;-72
2021/10/15 01:30:13;;;;;;;3.00;1.48;;;;;;;;;;2070291;28;20025;-72
2021/10/15 01:31:32;;;;;;;4.53;1.52;;;;;;;;;;2071696;28;20029;-73
2021/10/15 01:32:51;;;;;;;4.45;1.60;;;;;;;;;;2071481;28;20065;-73
2021/10/15 01:34:10;;;;;;;4.47;1.50;;;;;;;;;;2072146;28;20470;-73
2021/10/15 01:35:29;;;;;;;3.28;1.77;;;;;;;;;;2071627;28;20045;-73
2021/10/15 01:36:48;;;;;;;4.10;1.73;;;;;;;;;;2069212;28;20022;-74
2021/10/15 01:38:07;;;;;;;4.43;1.58;;;;;;;;;;2069286;28;20433;-72
2021/10/15 01:39:26;;;;;;;3.08;2.17;;;;;;;;;;2071714;28;20029;-73
2021/10/15 01:40:45;;;;;;;2.08;1.25;;;;;;;;;;2079433;28;20042;-72
2021/10/15 01:42:05;;;;;;;1.83;1.60;;;;;;;;;;2075549;28;20026;-73
2021/10/15 01:43:24;;;;;;;4.35;1.35;;;;;;;;;;2070432;28;20105;-72
2021/10/15 01:44:43;;;;;;;4.38;1.83;;;;;;;;;;2069887;28;20046;-74
2021/10/15 01:46:02;;;;;;;3.20;1.73;;;;;;;;;;2071254;28;20026;-72
2021/10/15 01:47:21;;;;;;;4.60;1.60;;;;;;;;;;2070973;28;20021;-72
2021/10/15 01:48:40;;;;;;;4.00;1.65;;;;;;;;;;2068858;28;20399;-72
2021/10/15 01:49:59;;;;;;;7.10;1.80;;;;;;;;;;2071343;28;20034;-73
2021/10/15 01:51:18;;;;;;;3.63;1.80;;;;;;;;;;2072663;28;20023;-72
2021/10/15 01:52:37;;;;;;;3.22;2.17;;;;;;;;;;2071793;28;20037;-72
2021/10/15 01:53:56;;;;;;;3.80;1.50;;;;;;;;;;2072743;28;20120;-73
2021/10/15 01:55:15;;;;;;;2.38;1.38;;;;;;;;;;2069600;28;20108;-72
2021/10/15 01:56:34;;;;;;;2.70;1.70;;;;;;;;;;2076100;28;20033;-73
2021/10/15 01:57:53;;;;;;;2.83;1.80;;;;;;;;;;2072275;28;20469;-73
2021/10/15 01:59:12;;;;;;;3.67;1.83;;;;;;;;;;2070941;28;20379;-72
2021/10/15 02:00:31;;;;;;;3.33;1.95;;;;;;;;;;2071485;28;20042;-73
2021/10/15 02:01:51;;;;;;;2.15;1.38;;;;;;;;;;2066979;28;20026;-73
2021/10/15 02:03:10;;;;;;;3.70;1.90;;;;;;;;;;2069588;28;20112;-72
2021/10/15 02:04:28;;;;;;;3.60;1.88;;;;;;;;;;2073574;28;20034;-72
2021/10/15 02:05:48;;;;;;;2.20;1.63;;;;;;;;;;2070262;28;20041;-72
2021/10/15 02:07:06;;;;;;;4.72;1.67;;;;;;;;;;2071881;28;20410;-72
2021/10/15 02:08:25;;;;;;;2.72;1.70;;;;;;;;;;2078536;28;20125;-73
2021/10/15 02:09:44;;;;;;;2.92;1.70;;;;;;;;;;2072132;28;20018;-72
2021/10/15 02:11:05;;;;;;;4.72;1.77;;;;;;;;;;2071740;28;20065;-72
2021/10/15 02:12:24;;;;;;;3.17;1.90;;;;;;;;;;2071949;28;20038;-73
2021/10/15 02:13:43;;;;;;;4.68;1.70;;;;;;;;;;2071788;28;20042;-73
2021/10/15 02:15:02;;;;;;;3.50;1.95;;;;;;;;;;2068632;28;20026;-73
2021/10/15 02:16:21;;;;;;;3.35;1.55;;;;;;;;;;2068458;28;20037;-72
2021/10/15 02:17:40;;;;;;;1.63;1.42;;;;;;;;;;2071045;28;20054;-72
2021/10/15 02:18:59;;;;;;;5.40;2.20;;;;;;;;;;2072751;28;20034;-73
2021/10/15 02:20:18;;;;;;;4.55;1.77;;;;;;;;;;2078035;28;20354;-73
2021/10/15 02:21:37;;;;;;;2.60;1.65;;;;;;;;;;2069457;28;20025;-72
2021/10/15 02:22:56;;;;;;;3.90;2.17;;;;;;;;;;2070849;28;20034;-73
2021/10/15 02:24:15;;;;;;;3.08;1.80;;;;;;;;;;2071595;28;20431;-73
2021/10/15 02:25:35;;;;;;;1.48;1.38;;;;;;;;;;2068977;28;20426;-73
2021/10/15 02:26:54;;;;;;;2.30;1.73;;;;;;;;;;2070935;28;20026;-73
2021/10/15 02:28:13;;;;;;;2.97;1.92;;;;;;;;;;2071769;28;20482;-74
2021/10/15 02:29:32;;;;;;;4.07;1.70;;;;;;;;;;2071499;28;20034;-73
2021/10/15 02:30:51;;;;;;;4.40;2.05;;;;;;;;;;2069292;28;20030;-73
2021/10/15 02:32:10;;;;;;;5.18;1.90;;;;;;;;;;2071068;28;20114;-73
2021/10/15 02:33:29;;;;;;;2.67;1.60;;;;;;;;;;2071190;28;20041;-73
2021/10/15 02:34:48;;;;;;;2.15;1.70;;;;;;;;;;2071805;28;20506;-73
2021/10/15 02:36:07;;;;;;;2.75;1.75;;;;;;;;;;2071314;28;20072;-73
2021/10/15 02:37:26;;;;;;;3.85;1.90;;;;;;;;;;2070092;28;20034;-73
2021/10/15 02:38:45;;;;;;;3.97;2.08;;;;;;;;;;2065221;28;20042;-74
2021/10/15 02:40:04;;;;;;;3.55;1.90;;;;;;;;;;2067698;28;20030;-74
2021/10/15 02:41:23;;;;;;;1.83;1.35;;;;;;;;;;2070925;28;20030;-73
2021/10/15 02:42:42;;;;;;;4.28;2.03;;;;;;;;;;2072127;28;20378;-73
2021/10/15 02:44:01;;;;;;;5.88;1.73;;;;;;;;;;2069160;28;20039;-73
2021/10/15 02:45:20;;;;;;;2.40;1.70;;;;;;;;;;2072676;28;20513;-73
2021/10/15 02:46:40;;;;;;;2.58;1.80;;;;;;;;;;2070970;28;20030;-73
2021/10/15 02:47:59;;;;;;;5.57;1.95;;;;;;;;;;2070722;28;20077;-73
2021/10/15 02:49:18;;;;;;;3.28;1.77;;;;;;;;;;2067801;28;20037;-73
2021/10/15 02:50:37;;;;;;;2.30;2.00;;;;;;;;;;2069596;28;20100;-72
2021/10/15 02:51:56;;;;;;;2.58;1.73;;;;;;;;;;2072246;28;20485;-73
2021/10/15 02:53:14;;;;;;;2.30;2.00;;;;;;;;;;2071107;28;20034;-73
2021/10/15 02:54:33;;;;;;;3.78;1.92;;;;;;;;;;2077350;28;20501;-73
2021/10/15 02:55:52;;;;;;;3.55;1.50;;;;;;;;;;2070315;28;20041;-73
2021/10/15 02:57:11;;;;;;;3.72;2.15;;;;;;;;;;2069506;28;20034;-73
2021/10/15 02:58:30;;;;;;;2.30;1.88;;;;;;;;;;2072017;28;20172;-73
2021/10/15 02:59:49;;;;;;;2.50;1.80;;;;;;;;;;2070299;28;20029;-73
2021/10/15 03:01:07;;;;;;;2.35;1.90;;;;;;;;;;2068302;28;20061;-74
2021/10/15 03:02:26;;;;;;;3.83;1.60;;;;;;;;;;2077276;28;20033;-73
2021/10/15 03:03:45;;;;;;;3.60;1.90;;;;;;;;;;2074169;28;20448;-73
2021/10/15 03:05:05;;;;;;;4.80;2.30;;;;;;;;;;2072030;28;20026;-74
2021/10/15 03:06:23;;;;;;;6.05;2.17;;;;;;;;;;2069451;28;20121;-73
2021/10/15 03:07:42;;;;;;;3.08;1.77;;;;;;;;;;2071545;28;20026;-73
2021/10/15 03:09:02;;;;;;;2.47;1.58;;;;;;;;;;2070507;28;20045;-73
2021/10/15 03:10:21;;;;;;;3.30;1.88;;;;;;;;;;2071546;28;20038;-73
2021/10/15 03:11:40;;;;;;;2.55;1.70;;;;;;;;;;2070969;28;20108;-73
2021/10/15 03:12:59;;;;;;;5.75;1.88;;;;;;;;;;2067524;28;20045;-72
2021/10/15 03:14:18;;;;;;;2.90;2.00;;;;;;;;;;2067200;28;20042;-73
2021/10/15 03:15:37;;;;;;;3.97;1.90;;;;;;;;;;2070200;28;20030;-72
2021/10/15 03:16:55;;;;;;;3.67;1.90;;;;;;;;;;2067115;28;20034;-71
2021/10/15 03:18:14;;;;;;;4.50;1.70;;;;;;;;;;2075826;28;20431;-72
2021/10/15 03:19:35;;;;;;;2.70;2.10;;;;;;;;;;2069851;28;20416;-71
2021/10/15 03:20:53;;;;;;;4.07;2.15;;;;;;;;;;2075265;28;20025;-72
2021/10/15 03:22:12;;;;;;;3.63;1.80;;;;;;;;;;2071606;28;20026;-72
2021/10/15 03:23:31;;;;;;;4.25;1.80;;;;;;;;;;2071644;28;20475;-72
2021/10/15 03:24:50;;;;;;;3.97;1.90;;;;;;;;;;2067911;28;20038;-72
2021/10/15 03:26:09;;;;;;;1.80;1.35;;;;;;;;;;2069498;28;20034;-72
2021/10/15 03:27:28;;;;;;;3.75;1.83;;;;;;;;;;2071294;28;20030;-72
2021/10/15 03:28:47;;;;;;;2.10;1.75;;;;;;;;;;2071687;28;20026;-71
2021/10/15 03:30:07;;;;;;;2.95;1.92;;;;;;;;;;2070473;28;20463;-72
2021/10/15 03:31:26;;;;;;;2.20;2.00;;;;;;;;;;2071203;28;20128;-73
2021/10/15 03:32:44;;;;;;;2.83;1.60;;;;;;;;;;2071378;28;20026;-71
2021/10/15 03:34:03;;;;;;;2.38;1.90;;;;;;;;;;2076110;28;20026;-71
2021/10/15 03:35:22;;;;;;;3.78;1.92;;;;;;;;;;2071968;28;20042;-71
2021/10/15 03:36:41;;;;;;;3.35;1.90;;;;;;;;;;2068467;28;20030;-71
2021/10/15 03:38:00;;;;;;;1.60;1.50;;;;;;;;;;2077263;28;20021;-72
2021/10/15 03:39:19;;;;;;;1.85;1.70;;;;;;;;;;2080104;28;20029;-71
2021/10/15 03:40:37;;;;;;;3.22;1.75;;;;;;;;;;2070604;28;20018;-71
2021/10/15 03:41:56;;;;;;;2.28;1.45;;;;;;;;;;2071896;28;20034;-71
2021/10/15 03:43:15;;;;;;;6.95;2.22;;;;;;;;;;2072562;28;20042;-71
2021/10/15 03:44:34;;;;;;;3.13;1.92;;;;;;;;;;2072556;28;20030;-71
2021/10/15 03:45:53;;;;;;;3.67;1.92;;;;;;;;;;2073748;28;20042;-71
2021/10/15 03:47:12;;;;;;;2.55;1.88;;;;;;;;;;2071268;28;20042;-72
2021/10/15 03:48:31;;;;;;;3.17;1.73;;;;;;;;;;2080743;28;20029;-71
2021/10/15 03:49:50;;;;;;;4.53;2.20;;;;;;;;;;2075509;28;20112;-71
2021/10/15 03:51:09;;;;;;;3.70;1.88;;;;;;;;;;2072199;28;20699;-71
2021/10/15 03:52:28;;;;;;;4.15;1.77;;;;;;;;;;2070901;28;20497;-71
2021/10/15 03:53:47;;;;;;;2.75;1.90;;;;;;;;;;2071419;28;20033;-73
2021/10/15 03:55:07;;;;;;;1.65;1.48;;;;;;;;;;2071781;28;20034;-72
2021/10/15 03:56:25;;;;;;;5.03;1.98;;;;;;;;;;2073090;28;20438;-73
2021/10/15 03:57:44;;;;;;;1.98;1.77;;;;;;;;;;2073187;28;20420;-72
2021/10/15 03:59:03;;;;;;;1.98;1.77;;;;;;;;;;2071272;28;20022;-71
2021/10/15 04:00:22;;;;;;;2.10;1.67;;;;;;;;;;2071049;28;20034;-73
2021/10/15 04:01:41;;;;;;;5.75;1.90;;;;;;;;;;2073162;28;20026;-71
2021/10/15 04:03:00;;;;;;;4.72;2.00;;;;;;;;;;2071469;28;20433;-72
2021/10/15 04:04:19;;;;;;;2.65;1.63;;;;;;;;;;2073116;28;20018;-72
2021/10/15 04:05:38;;;;;;;2.83;1.90;;;;;;;;;;2072348;28;20026;-72
2021/10/15 04:06:57;;;;;;;3.28;2.13;;;;;;;;;;2072805;28;20037;-72
2021/10/15 04:08:16;;;;;;;4.13;2.20;;;;;;;;;;2078811;28;20041;-72
2021/10/15 04:09:35;;;;;;;2.55;1.67;;;;;;;;;;2075110;28;20226;-71
2021/10/15 04:10:54;;;;;;;5.10;2.15;;;;;;;;;;2072362;28;20026;-72
2021/10/15 04:12:12;;;;;;;3.08;1.55;;;;;;;;;;2078695;28;20045;-72
2021/10/15 04:13:31;;;;;;;1.60;1.50;;;;;;;;;;2073452;28;20038;-72
2021/10/15 04:14:50;;;;;;;2.55;1.70;;;;;;;;;;2072670;28;20034;-71
2021/10/15 04:16:09;;;;;;;2.45;1.85;;;;;;;;;;2071825;28;20029;-71
2021/10/15 04:17:28;;;;;;;1.70;1.60;;;;;;;;;;2072070;28;20029;-72
2021/10/15 04:18:47;;;;;;;5.15;2.00;;;;;;;;;;2066014;28;20025;-72
2021/10/15 04:20:07;;;;;;;3.95;2.22;;;;;;;;;;2070311;28;20065;-71
2021/10/15 04:21:26;;;;;;;2.67;1.83;;;;;;;;;;2069952;28;20034;-72
2021/10/15 04:22:44;;;;;;;2.40;2.17;;;;;;;;;;2071040;28;20132;-72
2021/10/15 04:24:03;;;;;;;2.60;2.03;;;;;;;;;;2081166;28;20033;-72
2021/10/15 04:25:22;;;;;;;4.65;2.13;;;;;;;;;;2075502;28;20128;-72
2021/10/15 04:26:41;;;;;;;2.25;1.77;;;;;;;;;;2072829;28;20041;-71
2021/10/15 04:28:00;;;;;;;1.83;1.70;;;;;;;;;;2072351;28;20026;-72
2021/10/15 04:29:19;;;;;;;3.55;1.70;;;;;;;;;;2071695;28;20042;-72
2021/10/15 04:30:38;;;;;;;2.85;1.92;;;;;;;;;;2074069;28;20033;-72
2021/10/15 04:31:57;;;;;;;2.40;1.27;;;;;;;;;;2071875;28;20116;-72
2021/10/15 04:33:16;;;;;;;4.10;2.05;;;;;;;;;;2073282;28;20042;-73
2021/10/15 04:34:34;;;;;;;2.70;1.73;;;;;;;;;;2079962;28;20025;-71
2021/10/15 04:35:53;;;;;;;4.03;1.48;;;;;;;;;;2073921;28;20034;-72
2021/10/15 04:37:12;;;;;;;6.50;1.80;;;;;;;;;;2071863;28;20077;-72
2021/10/15 04:38:31;;;;;;;1.70;1.30;;;;;;;;;;2068794;28;20491;-73
2021/10/15 04:39:50;;;;;;;3.42;1.67;;;;;;;;;;2072613;28;20026;-71
2021/10/15 04:41:09;;;;;;;3.03;1.50;;;;;;;;;;2071739;28;20030;-71
2021/10/15 04:42:28;;;;;;;2.05;1.70;;;;;;;;;;2072138;28;20108;-72
2021/10/15 04:43:47;;;;;;;3.15;1.83;;;;;;;;;;2077352;28;20018;-71
2021/10/15 04:45:07;;;;;;;6.97;1.63;;;;;;;;;;2074350;28;20085;-73
2021/10/15 04:46:27;;;;;;;3.60;1.38;;;;;;;;;;2068378;28;20030;-71
2021/10/15 04:47:46;;;;;;;2.58;1.40;;;;;;;;;;2071847;28;20030;-72
2021/10/15 04:49:05;;;;;;;1.85;1.20;;;;;;;;;;2068629;28;20030;-71
2021/10/15 04:50:24;;;;;;;3.28;1.67;;;;;;;;;;2071878;28;20034;-72
2021/10/15 04:51:43;;;;;;;2.10;1.40;;;;;;;;;;2071944;28;20470;-71
2021/10/15 04:53:05;;;;;;;4.25;1.80;;;;;;;;;;2072059;28;20057;-71
2021/10/15 04:54:24;;;;;;;2.88;1.70;;;;;;;;;;2072960;28;20022;-71
2021/10/15 04:55:43;;;;;;;2.17;1.38;;;;;;;;;;2067988;28;20506;-72
2021/10/15 04:57:02;;;;;;;2.85;1.83;;;;;;;;;;2070550;28;20498;-73
2021/10/15 04:58:21;;;;;;;1.70;1.60;;;;;;;;;;2068740;28;20034;-72
2021/10/15 04:59:39;;;;;;;1.73;1.63;;;;;;;;;;2075206;28;20033;-72
2021/10/15 05:00:58;;;;;;;1.55;1.45;;;;;;;;;;2075843;28;20030;-72
2021/10/15 05:02:17;;;;;;;4.53;1.90;;;;;;;;;;2072628;28;20483;-70
2021/10/15 05:03:36;;;;;;;3.47;1.50;;;;;;;;;;2072748;28;20117;-71
2021/10/15 05:04:56;;;;;;;4.65;1.40;;;;;;;;;;2072557;28;20029;-70
2021/10/15 05:06:15;;;;;;;2.20;1.38;;;;;;;;;;2073089;28;20065;-73
2021/10/15 05:07:34;;;;;;;2.08;1.20;;;;;;;;;;2072678;28;20030;-70
2021/10/15 05:10:30;;;;;;;2.22;1.48;;;;;;;;;;2073246;28;20061;-74
2021/10/15 05:11:49;;;;;;;1.60;1.50;;;;;;;;;;2072939;28;20061;-70
2021/10/15 05:13:09;;;;;;;5.22;1.50;;;;;;;;;;2071212;28;20450;-71
2021/10/15 05:14:28;;;;;;;3.33;1.33;;;;;;;;;;2072798;28;20030;-73
2021/10/15 05:15:47;;;;;;;6.38;1.70;;;;;;;;;;2068808;28;20100;-70
2021/10/15 05:17:06;;;;;;;8.32;1.70;;;;;;;;;;2069719;28;20022;-69
2021/10/15 05:18:25;;;;;;;4.28;1.48;;;;;;;;;;2069540;28;20053;-71
2021/10/15 05:19:44;;;;;;;1.83;1.50;;;;;;;;;;2072869;28;20030;-70
2021/10/15 05:21:03;;;;;;;2.58;1.88;;;;;;;;;;2071148;28;20529;-71
2021/10/15 05:22:22;;;;;;;4.80;1.85;;;;;;;;;;2069618;28;20482;-71
2021/10/15 05:23:41;;;;;;;2.30;1.20;;;;;;;;;;2070838;28;20116;-70
2021/10/15 05:25:00;;;;;;;2.33;1.45;;;;;;;;;;2070204;28;20414;-70
2021/10/15 05:26:19;;;;;;;2.00;1.38;;;;;;;;;;2071559;28;20026;-71
2021/10/15 05:27:39;;;;;;;2.13;1.65;;;;;;;;;;2071182;28;20038;-70
2021/10/15 05:28:58;;;;;;;4.10;1.40;;;;;;;;;;2071634;28;20029;-70
2021/10/15 05:30:17;;;;;;;5.65;1.75;;;;;;;;;;2071261;28;20033;-70
2021/10/15 05:31:36;;;;;;;2.03;1.60;;;;;;;;;;2078489;28;20034;-70
2021/10/15 05:32:54;;;;;;;1.95;1.50;;;;;;;;;;2074124;28;20049;-70
2021/10/15 05:34:13;;;;;;;2.67;1.73;;;;;;;;;;2071788;28;20059;-70
2021/10/15 05:35:32;;;;;;;1.30;1.20;;;;;;;;;;2070390;28;20029;-70
2021/10/15 05:36:51;;;;;;;2.28;1.55;;;;;;;;;;2071291;28;20026;-72
2021/10/15 05:38:10;;;;;;;1.40;1.30;;;;;;;;;;2069458;28;20030;-74
2021/10/15 05:39:29;;;;;;;3.28;1.42;;;;;;;;;;2069409;28;20061;-73
2021/10/15 05:40:48;;;;;;;1.80;1.55;;;;;;;;;;2066832;28;20030;-71
2021/10/15 05:42:06;;;;;;;3.13;1.70;;;;;;;;;;2070529;28;20034;-72
2021/10/15 05:43:25;;;;;;;4.47;1.70;;;;;;;;;;2071367;28;20090;-71
2021/10/15 05:44:45;;;;;;;4.25;1.75;;;;;;;;;;2070985;28;20144;-71
2021/10/15 05:46:03;;;;;;;2.22;1.55;;;;;;;;;;2069277;28;20026;-70
2021/10/15 05:47:22;;;;;;;3.17;2.00;;;;;;;;;;2074344;28;20038;-73
2021/10/15 05:48:41;;;;;;;3.13;1.75;;;;;;;;;;2074323;28;20042;-70
2021/10/15 05:50:00;;;;;;;2.53;1.40;;;;;;;;;;2079785;28;20599;-70
2021/10/15 05:51:21;;;;;;;2.13;1.60;;;;;;;;;;2074320;28;20378;-70
2021/10/15 05:52:46;;;;;;;2.75;1.15;;;;;;;;;;2070815;28;20418;-69
2021/10/15 05:54:06;;;;;;;5.53;2.13;;;;;;;;;;2068543;28;20279;-71
2021/10/15 05:55:33;;;;;;;2.45;1.45;;;;;;;;;;2069100;28;20042;-69
2021/10/15 05:59:56;;;;;;;5.38;1.60;;;;;;;;;;2070146;28;20022;-70
2021/10/15 06:01:15;;;;;;;2.03;1.48;;;;;;;;;;2070373;28;20030;-69
2021/10/15 06:02:35;;;;;;;1.65;1.42;;;;;;;;;;2070753;28;20097;-69
2021/10/15 06:04:50;;;;;;;1.95;1.40;;;;;;;;;;2071064;28;20501;-70
2021/10/15 06:15:12;;;;;;;1.15;1.05;;;;;;;;;;2070100;28;20034;-69
2021/10/15 06:16:33;;;;;;;0.95;0.90;;;;;;;;;;2070474;28;20026;-73
2021/10/15 06:17:52;;;;;;;1.30;1.08;;;;;;;;;;2070705;28;20030;-69
2021/10/15 06:19:13;;;;;;;1.88;1.33;;;;;;;;;;2071162;28;20041;-69
2021/10/15 06:20:31;;;;;;;1.55;0.90;;;;;;;;;;2070617;28;20026;-71
2021/10/15 06:21:51;;;;;;;1.70;0.88;;;;;;;;;;2070686;28;20018;-70
2021/10/15 06:23:10;;;;;;;1.80;1.15;;;;;;;;;;2071365;28;20026;-69
2021/10/15 06:24:28;;;;;;;1.55;1.02;;;;;;;;;;2069356;28;20049;-68
2021/10/15 06:25:47;;;;;;;2.45;1.05;;;;;;;;;;2071849;28;20045;-70
2021/10/15 06:27:06;;;;;;;1.42;1.05;;;;;;;;;;2072466;28;20553;-69
2021/10/15 06:28:25;;;;;;;2.10;1.08;;;;;;;;;;2073342;28;20469;-68
2021/10/15 06:29:44;;;;;;;1.15;0.82;;;;;;;;;;2072013;28;20507;-73
2021/10/15 06:31:03;;;;;;;0.95;0.85;;;;;;;;;;2072339;28;20053;-71
2021/10/15 06:32:23;;;;;;;1.85;1.13;;;;;;;;;;2070111;28;20038;-69
2021/10/15 06:33:42;;;;;;;1.95;1.02;;;;;;;;;;2066218;28;20034;-71
2021/10/15 06:35:01;;;;;;;1.73;1.00;;;;;;;;;;2074543;28;20053;-69
2021/10/15 06:36:19;;;;;;;0.80;0.80;;;;;;;;;;2073771;28;20430;-69
2021/10/15 06:37:38;;;;;;;0.82;0.77;;;;;;;;;;2077624;28;20030;-70
2021/10/15 06:38:57;;;;;;;1.13;0.88;;;;;;;;;;2071560;28;20426;-69
2021/10/15 06:40:16;;;;;;;2.38;0.85;;;;;;;;;;2071737;28;20041;-73
2021/10/15 06:41:35;;;;;;;0.77;0.60;;;;;;;;;;2065706;28;20030;-69
2021/10/15 06:42:54;;;;;;;1.65;1.10;;;;;;;;;;2066152;28;20030;-69
2021/10/15 06:44:13;;;;;;;1.13;0.93;;;;;;;;;;2070549;28;20031;-71
2021/10/15 06:45:32;;;;;;;1.85;0.95;;;;;;;;;;2069462;28;20038;-70
2021/10/15 06:46:52;;;;;;;0.77;0.77;;;;;;;;;;2063653;28;20038;-72
2021/10/15 06:48:11;;;;;;;1.33;0.88;;;;;;;;;;2067022;28;20968;-70
2021/10/15 06:49:30;;;;;;;2.25;1.05;;;;;;;;;;2068560;28;20061;-69
2021/10/15 06:50:49;;;;;;;1.08;0.98;;;;;;;;;;2068120;28;20042;-71
2021/10/15 06:52:07;;;;;;;1.33;1.10;;;;;;;;;;2070493;28;20026;-72
2021/10/15 06:53:26;;;;;;;0.95;0.95;;;;;;;;;;2070725;28;20030;-71
2021/10/15 06:54:45;;;;;;;1.58;0.75;;;;;;;;;;2070996;28;20041;-71
2021/10/15 06:56:04;;;;;;;1.40;0.95;;;;;;;;;;2069506;28;20034;-72
2021/10/15 06:57:23;;;;;;;0.80;0.80;;;;;;;;;;2070509;28;20026;-71
2021/10/15 06:58:42;;;;;;;2.45;0.93;;;;;;;;;;2069678;28;20026;-72
2021/10/15 07:00:01;;;;;;;1.05;0.93;;;;;;;;;;2069610;28;20026;-71
2021/10/15 07:01:20;;;;;;;1.27;0.68;;;;;;;;;;2069741;28;20462;-71
2021/10/15 07:02:40;;;;;;;2.33;1.17;;;;;;;;;;2069209;28;20026;-72
2021/10/15 07:03:59;;;;;;;0.80;0.80;;;;;;;;;;2076102;28;20100;-72
2021/10/15 07:05:18;;;;;;;1.05;0.80;;;;;;;;;;2070178;28;20027;-73
2021/10/15 07:06:37;;;;;;;1.27;0.80;;;;;;;;;;2069285;28;20030;-72
2021/10/15 07:07:56;;;;;;;1.50;0.77;;;;;;;;;;2070881;28;20057;-74
2021/10/15 07:09:15;;;;;;;1.30;0.68;;;;;;;;;;2074671;28;20033;-72
2021/10/15 07:10:34;;;;;;;1.52;0.80;;;;;;;;;;2068626;28;20398;-74
2021/10/15 07:11:54;;;;;;;1.08;0.80;;;;;;;;;;2070677;28;20033;-73
2021/10/15 07:13:14;;;;;;;1.02;0.90;;;;;;;;;;2070297;28;20032;-74
2021/10/15 07:14:33;;;;;;;2.13;0.73;;;;;;;;;;2075720;28;20025;-74
2021/10/15 07:15:52;;;;;;;1.98;0.90;;;;;;;;;;2070525;28;20046;-72
2021/10/15 07:17:11;;;;;;;1.15;0.93;;;;;;;;;;2074907;28;20029;-71
2021/10/15 07:18:30;;;;;;;1.20;0.55;;;;;;;;;;2081922;28;20037;-72
2021/10/15 07:19:49;;;;;;;2.08;0.70;;;;;;;;;;2071089;28;20062;-72
2021/10/15 07:21:08;;;;;;;2.28;0.60;;;;;;;;;;2076346;28;20022;-72
2021/10/15 07:22:27;;;;;;;0.65;0.60;;;;;;;;;;2078030;28;20026;-71
2021/10/15 07:23:46;;;;;;;1.10;0.63;;;;;;;;;;2074417;28;20054;-72
2021/10/15 07:25:06;;;;;;;2.78;0.73;;;;;;;;;;2071082;28;20502;-72
2021/10/15 07:26:24;;;;;;;1.48;0.47;;;;;;;;;;2071085;28;20034;-71
2021/10/15 07:27:43;;;;;;;0.65;0.50;;;;;;;;;;2068786;28;20026;-72
2021/10/15 07:29:02;;;;;;;2.00;0.50;;;;;;;;;;2069983;28;20042;-72
2021/10/15 07:30:21;;;;;;;1.38;0.60;;;;;;;;;;2069479;28;20058;-72
2021/10/15 07:31:40;;;;;;;1.88;1.02;;;;;;;;;;2070177;28;20501;-72
2021/10/15 07:32:59;;;;;;;1.60;0.68;;;;;;;;;;2069913;28;20026;-71
2021/10/15 07:34:18;;;;;;;0.45;0.43;;;;;;;;;;2066354;28;20030;-70
2021/10/15 07:35:36;;;;;;;1.98;0.60;;;;;;;;;;2070248;28;20030;-71
2021/10/15 07:36:56;;;;;;;2.05;0.63;;;;;;;;;;2070678;28;20026;-71
2021/10/15 07:38:14;;;;;;;2.50;0.68;;;;;;;;;;2070332;28;20022;-71
2021/10/15 07:39:33;;;;;;;1.55;0.45;;;;;;;;;;2069509;28;20505;-70
2021/10/15 07:40:52;;;;;;;4.25;0.55;;;;;;;;;;2075784;28;20046;-72
2021/10/15 07:42:11;;;;;;;1.42;0.60;;;;;;;;;;2074331;28;20089;-71
2021/10/15 07:43:30;;;;;;;2.72;0.52;;;;;;;;;;2071248;28;20042;-71
2021/10/15 07:44:49;;;;;;;2.45;0.60;;;;;;;;;;2069559;28;20121;-71
2021/10/15 07:46:07;;;;;;;1.52;0.55;;;;;;;;;;2074254;28;20120;-71
2021/10/15 07:47:26;;;;;;;1.65;0.77;;;;;;;;;;2073189;28;20042;-71
2021/10/15 07:48:45;;;;;;;0.88;0.70;;;;;;;;;;2069790;28;20060;-71
2021/10/15 07:50:05;;;;;;;1.83;0.73;;;;;;;;;;2069453;28;20025;-71
2021/10/15 07:51:24;;;;;;;0.95;0.45;;;;;;;;;;2070821;28;20037;-73
2021/10/15 07:52:42;;;;;;;0.73;0.60;;;;;;;;;;2068098;28;20034;-70
2021/10/15 07:54:01;;;;;;;0.80;0.70;;;;;;;;;;2075207;28;20404;-70
2021/10/15 07:55:20;;;;;;;1.30;0.80;;;;;;;;;;2072800;28;20034;-71
2021/10/15 07:56:39;;;;;;;0.70;0.63;;;;;;;;;;2070656;28;20030;-73
2021/10/15 07:57:58;;;;;;;3.55;0.63;;;;;;;;;;2070458;28;20038;-70
2021/10/15 07:59:17;;;;;;;0.88;0.65;;;;;;;;;;2069456;28;20121;-70
2021/10/15 08:00:38;;;;;;;1.33;0.70;;;;;;;;;;2065295;28;20061;-71
2021/10/15 08:01:57;;;;;;;1.17;0.80;;;;;;;;;;2067666;28;20026;-71
2021/10/15 08:03:15;;;;;;;0.50;0.40;;;;;;;;;;2068828;28;20034;-73
2021/10/15 08:04:35;;;;;;;1.58;0.93;;;;;;;;;;2069243;28;20030;-71
2021/10/15 08:05:54;;;;;;;2.15;0.60;;;;;;;;;;2069046;28;20038;-71
2021/10/15 08:07:13;;;;;;;1.58;0.82;;;;;;;;;;2067800;28;20038;-71
2021/10/15 08:08:32;;;;;;;1.08;0.77;;;;;;;;;;2071398;28;20046;-71